createdAt,value
2022-10-13T00:01:08.322Z,44.3
2022-10-13T00:03:10.313Z,37.5
2022-10-13T00:05:12.407Z,41.3
2022-10-13T00:07:17.426Z,38.3
2022-10-13T00:09:19.468Z,35
2022-10-13T00:11:21.468Z,43
2022-10-13T00:13:23.508Z,50.7
2022-10-13T00:15:25.563Z,43.8
2022-10-13T00:17:27.599Z,34.9
2022-10-13T00:19:29.615Z,33.1
2022-10-13T00:21:34.711Z,54.3
2022-10-13T00:23:36.732Z,42.7
2022-10-13T00:25:38.760Z,32
2022-10-13T00:27:40.796Z,29.9
2022-10-13T00:29:42.871Z,48.1
2022-10-13T00:31:44.913Z,36.9
2022-10-13T00:33:46.930Z,38.1
2022-10-13T00:35:52.012Z,37.6
2022-10-13T00:37:54.031Z,31.2
2022-10-13T00:39:56.076Z,40.8
2022-10-13T00:40:58.617Z,37.7
2022-10-13T00:43:00.674Z,28.9
2022-10-13T00:45:02.710Z,41.3
2022-10-13T00:47:04.740Z,46.5
2022-10-13T00:49:10.302Z,30.9
2022-10-13T00:51:11.832Z,36.1
2022-10-13T00:53:13.863Z,44
2022-10-13T00:59:20.004Z,39.7
2022-10-13T01:01:22.035Z,52.8
2022-10-13T01:03:27.117Z,42.5
2022-10-13T01:07:31.416Z,24.9
2022-10-13T01:09:33.264Z,38.9
2022-10-13T01:11:35.272Z,45.7
2022-10-13T01:13:37.328Z,37.3
2022-10-13T01:17:44.417Z,35.5
2022-10-13T01:19:46.458Z,32.6
2022-10-13T01:23:50.523Z,33.8
2022-10-13T01:25:52.553Z,31
2022-10-13T01:27:54.574Z,36
2022-10-13T01:29:56.618Z,30.1
2022-10-13T01:32:01.702Z,48.1
2022-10-13T01:34:03.724Z,35.5
2022-10-13T01:36:05.756Z,35.4
2022-10-13T01:39:10.353Z,32.5
2022-10-13T01:41:12.359Z,42
2022-10-13T01:43:14.406Z,31.7
2022-10-13T01:47:21.519Z,31
2022-10-13T01:49:23.559Z,35.2
2022-10-13T01:51:25.605Z,38.6
2022-10-13T01:53:27.636Z,27.9
2022-10-13T02:01:38.811Z,32
2022-10-13T02:03:40.844Z,26
2022-10-13T02:05:42.859Z,26.7
2022-10-13T02:09:46.950Z,42.5
2022-10-13T02:15:57.603Z,37.3
2022-10-13T02:17:59.632Z,44.8
2022-10-13T02:20:01.693Z,49.2
2022-10-13T02:22:03.708Z,26.7
2022-10-13T02:24:05.743Z,36.5
2022-10-13T02:26:07.766Z,25.2
2022-10-13T02:28:12.918Z,36.2
2022-10-13T02:30:14.873Z,50
2022-10-13T02:32:17.329Z,49.5
2022-10-13T02:35:21.515Z,52.2
2022-10-13T02:37:23.546Z,31.4
2022-10-13T02:39:25.595Z,35.1
2022-10-13T02:41:30.657Z,47.7
2022-10-13T02:43:32.719Z,32.4
2022-10-13T02:45:34.729Z,34.3
2022-10-13T02:47:36.779Z,30.8
2022-10-13T02:49:38.814Z,29.8
2022-10-13T02:51:40.842Z,38.9
2022-10-13T02:55:47.956Z,33.1
2022-10-13T02:57:49.987Z,41.5
2022-10-13T02:59:52.018Z,35.7
2022-10-13T03:03:56.087Z,29
2022-10-13T03:05:58.125Z,30.6
2022-10-13T03:08:00.158Z,32.9
2022-10-13T03:10:05.231Z,45.9
2022-10-13T03:12:07.297Z,35.1
2022-10-13T03:14:09.333Z,25.2
2022-10-13T03:16:11.355Z,29.8
2022-10-13T03:18:13.400Z,29.3
2022-10-13T03:20:15.427Z,29.8
2022-10-13T03:22:17.821Z,46.1
2022-10-13T03:24:22.564Z,44.8
2022-10-13T03:26:24.576Z,24.9
2022-10-13T03:28:26.694Z,21.5
2022-10-13T03:30:49.349Z,30.3
2022-10-13T03:32:51.405Z,33.4
2022-10-13T03:34:53.413Z,33.2
2022-10-13T03:36:58.546Z,29.4
2022-10-13T03:39:00.548Z,33.3
2022-10-13T03:41:02.592Z,33.6
2022-10-13T03:43:04.632Z,27.5
2022-10-13T03:45:06.793Z,30.1
2022-10-13T03:47:08.669Z,42.1
2022-10-13T03:49:10.723Z,35.8
2022-10-13T03:51:15.843Z,33.7
2022-10-13T03:53:17.844Z,42
2022-10-13T03:55:19.904Z,31.2
2022-10-13T03:57:21.909Z,27.9
2022-10-13T03:59:23.950Z,30.4
2022-10-13T04:01:26.033Z,36.1
2022-10-13T04:03:28.013Z,35.5
2022-10-13T04:05:33.129Z,40.7
2022-10-13T04:09:37.182Z,48.5
2022-10-13T04:11:39.184Z,32.2
2022-10-13T04:13:41.230Z,38.7
2022-10-13T04:17:45.309Z,38.8
2022-10-13T04:19:50.427Z,30.5
2022-10-13T04:21:52.468Z,39.8
2022-10-13T04:23:54.476Z,32.7
2022-10-13T04:24:57.025Z,31.7
2022-10-13T04:26:59.048Z,27.4
2022-10-13T04:29:01.109Z,28.7
2022-10-13T04:31:03.130Z,27
2022-10-13T04:33:08.231Z,37.9
2022-10-13T04:35:10.283Z,36.4
2022-10-13T04:37:12.277Z,30.9
2022-10-13T04:39:14.318Z,26.6
2022-10-13T04:41:16.349Z,30.5
2022-10-13T04:43:18.395Z,28.6
2022-10-13T04:45:20.406Z,70.6
2022-10-13T04:47:25.535Z,33.6
2022-10-13T04:49:27.577Z,25.2
2022-10-13T04:51:29.602Z,27.2
2022-10-13T04:53:31.633Z,25.4
2022-10-13T04:55:33.663Z,37.4
2022-10-13T04:57:35.697Z,26.4
2022-10-13T04:59:37.737Z,30.7
2022-10-13T05:01:42.853Z,39.4
2022-10-13T05:03:44.886Z,38.4
2022-10-13T05:05:46.915Z,43.4
2022-10-13T05:07:48.938Z,39.4
2022-10-13T05:09:50.990Z,37.4
2022-10-13T05:11:53.007Z,32.2
2022-10-13T05:13:55.053Z,29.4
2022-10-13T05:16:00.159Z,36.6
2022-10-13T05:18:02.247Z,25.1
2022-10-13T05:20:04.226Z,36.1
2022-10-13T05:21:06.759Z,38.6
2022-10-13T05:23:08.821Z,38.6
2022-10-13T05:25:10.871Z,34.3
2022-10-13T05:27:12.901Z,39.7
2022-10-13T05:29:17.977Z,35.9
2022-10-13T05:31:20.024Z,28.9
2022-10-13T05:33:22.044Z,44.3
2022-10-13T05:35:24.062Z,40.6
2022-10-13T05:37:26.127Z,28.2
2022-10-13T05:39:28.148Z,31.5
2022-10-13T05:41:30.181Z,42.5
2022-10-13T05:43:35.274Z,34.5
2022-10-13T05:45:37.289Z,34.6
2022-10-13T05:47:39.326Z,39
2022-10-13T05:49:41.362Z,45.6
2022-10-13T05:51:43.399Z,40.6
2022-10-13T05:53:49.572Z,40.7
2022-10-13T05:55:47.454Z,53.4
2022-10-13T05:57:52.563Z,55.8
2022-10-13T05:59:54.593Z,61.9
2022-10-13T06:01:56.663Z,47.4
2022-10-13T06:03:58.649Z,35.6
2022-10-13T06:06:00.692Z,52.4
2022-10-13T06:08:02.716Z,42.1
2022-10-13T06:10:04.750Z,29.1
2022-10-13T06:12:09.838Z,31.2
2022-10-13T06:14:11.871Z,34.4
2022-10-13T06:16:13.896Z,33.9
2022-10-13T06:17:16.449Z,28.9
2022-10-13T06:19:18.470Z,33.1
2022-10-13T06:21:20.530Z,31.3
2022-10-13T06:23:22.549Z,34.6
2022-10-13T06:25:27.637Z,43.2
2022-10-13T06:27:29.685Z,46.7
2022-10-13T06:29:31.743Z,41.6
2022-10-13T06:35:37.838Z,35.9
2022-10-13T06:37:39.848Z,42.4
2022-10-13T06:39:44.954Z,43.8
2022-10-13T06:41:46.986Z,42.6
2022-10-13T06:45:51.064Z,47.3
2022-10-13T06:47:53.077Z,48.4
2022-10-13T06:49:55.101Z,40.7
2022-10-13T06:51:57.139Z,30.2
2022-10-13T06:54:02.261Z,42
2022-10-13T06:56:04.300Z,44.3
2022-10-13T06:58:06.323Z,36.1
2022-10-13T07:00:08.349Z,46.7
2022-10-13T07:02:10.394Z,51.1
2022-10-13T07:04:12.416Z,38.2
2022-10-13T07:06:14.457Z,42.4
2022-10-13T07:08:19.557Z,37.7
2022-10-13T07:10:21.574Z,40.8
2022-10-13T07:12:23.627Z,39.3
2022-10-13T07:14:46.533Z,32.1
2022-10-13T07:16:48.606Z,40.5
2022-10-13T07:18:50.639Z,62.6
2022-10-13T07:20:55.740Z,42.2
2022-10-13T07:22:57.771Z,35
2022-10-13T07:24:59.783Z,46.6
2022-10-13T07:27:07.474Z,49
2022-10-13T07:29:03.859Z,37.6
2022-10-13T07:31:05.883Z,42.2
2022-10-13T07:33:07.911Z,55.8
2022-10-13T07:39:17.079Z,29.7
2022-10-13T07:41:19.100Z,40.8
2022-10-13T07:43:21.127Z,51.2
2022-10-13T07:45:23.155Z,35.2
2022-10-13T07:49:30.304Z,46.1
2022-10-13T07:51:32.334Z,37.6
2022-10-13T07:53:34.346Z,36.3
2022-10-13T07:55:36.376Z,27.8
2022-10-13T07:57:38.409Z,35.2
2022-10-13T07:59:40.436Z,37.9
2022-10-13T08:01:42.531Z,45.3
2022-10-13T08:05:51.115Z,31.1
2022-10-13T08:08:55.721Z,42.1
2022-10-13T08:10:57.712Z,45.4
2022-10-13T08:12:59.751Z,33.7
2022-10-13T08:15:05.285Z,30.9
2022-10-13T08:17:06.874Z,28
2022-10-13T08:19:08.909Z,37
2022-10-13T08:21:39.333Z,34.9
2022-10-13T08:23:12.955Z,35
2022-10-13T08:25:14.999Z,35.8
2022-10-13T08:27:17.466Z,36.2
2022-10-13T08:29:23.527Z,34.1
2022-10-13T08:31:24.366Z,29.6
2022-10-13T08:33:26.188Z,36.1
2022-10-13T08:35:31.308Z,31.5
2022-10-13T08:37:30.243Z,29.3
2022-10-13T08:41:34.307Z,32.8
2022-10-13T08:43:37.609Z,40.6
2022-10-13T08:51:47.536Z,38.2
2022-10-13T08:53:49.582Z,44.4
2022-10-13T08:55:51.611Z,36
2022-10-13T08:57:53.642Z,29.6
2022-10-13T08:59:58.728Z,28.2
2022-10-13T09:02:00.804Z,37.7
2022-10-13T09:04:02.799Z,28.6
2022-10-13T09:05:05.338Z,42.5
2022-10-13T09:07:07.375Z,35.9
2022-10-13T09:09:09.396Z,46.3
2022-10-13T09:11:11.427Z,36.5
2022-10-13T09:13:16.548Z,41.1
2022-10-13T09:15:18.546Z,48.3
2022-10-13T09:17:20.575Z,44
2022-10-13T09:19:22.609Z,39.8
2022-10-13T09:21:24.656Z,38
2022-10-13T09:23:26.671Z,31.3
2022-10-13T09:25:28.689Z,38
2022-10-13T09:27:33.774Z,55.9
2022-10-13T09:29:35.816Z,38.5
2022-10-13T09:31:37.855Z,50
2022-10-13T09:33:39.865Z,38
2022-10-13T09:35:41.897Z,48.8
2022-10-13T09:37:43.917Z,50
2022-10-13T09:39:45.937Z,45.2
2022-10-13T09:41:51.036Z,37.2
2022-10-13T09:43:53.070Z,61.9
2022-10-13T09:45:55.098Z,33.1
2022-10-13T09:52:01.191Z,46.7
2022-10-13T09:54:03.202Z,46.6
2022-10-13T09:58:10.330Z,31.1
2022-10-13T10:00:12.352Z,32.5
2022-10-13T10:01:14.898Z,30.5
2022-10-13T10:03:16.912Z,34
2022-10-13T10:05:18.950Z,30.9
2022-10-13T10:07:21.406Z,37.7
2022-10-13T10:09:26.057Z,48.4
2022-10-13T10:11:28.092Z,28.6
2022-10-13T10:13:30.117Z,35.5
2022-10-13T10:15:32.136Z,31.8
2022-10-13T10:17:34.144Z,33.6
2022-10-13T10:19:36.163Z,41.7
2022-10-13T10:21:38.196Z,25.7
2022-10-13T10:23:43.287Z,37.3
2022-10-13T10:25:45.296Z,44.7
2022-10-13T10:27:47.339Z,44
2022-10-13T10:29:49.359Z,35.8
2022-10-13T10:31:51.368Z,29.2
2022-10-13T10:33:53.391Z,34.5
2022-10-13T10:35:55.435Z,35.5
2022-10-13T10:38:00.518Z,37.1
2022-10-13T10:40:02.542Z,33.4
2022-10-13T10:42:04.561Z,30.8
2022-10-13T10:44:06.582Z,19.5
2022-10-13T10:46:08.627Z,20.2
2022-10-13T10:48:10.634Z,26
2022-10-13T10:50:12.665Z,26.8
2022-10-13T10:52:17.764Z,49.7
2022-10-13T10:54:19.780Z,27.5
2022-10-13T10:56:21.806Z,24.8
2022-10-13T10:58:38.936Z,28.7
2022-10-13T11:00:40.951Z,31.5
2022-10-13T11:02:42.952Z,24.9
2022-10-13T11:04:48.056Z,36.4
2022-10-13T11:06:50.059Z,29.5
2022-10-13T11:08:52.088Z,20.8
2022-10-13T11:10:55.125Z,21.3
2022-10-13T11:12:56.129Z,23.1
2022-10-13T11:14:58.168Z,31.2
2022-10-13T11:17:00.170Z,29.3
2022-10-13T11:19:05.263Z,24.7
2022-10-13T11:21:07.312Z,21.5
2022-10-13T11:23:09.292Z,33.2
2022-10-13T11:25:11.303Z,24.2
2022-10-13T11:27:13.321Z,23.4
2022-10-13T11:31:17.367Z,18.9
2022-10-13T11:33:22.427Z,14.4
2022-10-13T11:35:24.434Z,27.7
2022-10-13T11:37:26.451Z,22.3
2022-10-13T11:39:28.647Z,18.8
2022-10-13T11:41:30.477Z,25.4
2022-10-13T11:43:32.497Z,16.1
2022-10-13T11:45:34.516Z,26.9
2022-10-13T11:47:39.596Z,36.1
2022-10-13T11:49:41.614Z,44.5
2022-10-13T11:51:43.604Z,25.9
2022-10-13T11:52:46.159Z,19.9
2022-10-13T11:54:48.176Z,23.2
2022-10-13T11:56:50.218Z,15.8
2022-10-13T11:58:52.202Z,19.5
2022-10-13T12:00:57.283Z,35.2
2022-10-13T12:02:59.349Z,31.4
2022-10-13T12:05:01.301Z,25.4
2022-10-13T12:07:03.346Z,32
2022-10-13T12:09:05.334Z,27.4
2022-10-13T12:11:07.337Z,23.6
2022-10-13T12:13:09.366Z,27.3
2022-10-13T12:19:18.471Z,30.6
2022-10-13T12:33:35.686Z,34.9
2022-10-13T12:37:39.709Z,24.8
2022-10-13T12:39:42.681Z,26.8
2022-10-13T12:41:44.660Z,22.7
2022-10-13T12:43:49.776Z,33
2022-10-13T12:45:51.782Z,18.3
2022-10-13T12:47:53.807Z,27.3
2022-10-13T12:48:56.344Z,22.2
2022-10-13T12:50:58.379Z,21.1
2022-10-13T12:53:00.371Z,27.4
2022-10-13T12:55:02.730Z,30.3
2022-10-13T12:57:07.799Z,24.7
2022-10-13T12:59:09.836Z,26.3
2022-10-13T13:01:11.923Z,30.3
2022-10-13T13:03:13.875Z,23.5
2022-10-13T13:05:15.912Z,35.9
2022-10-13T13:07:17.933Z,27.8
2022-10-13T13:09:19.954Z,29.8
2022-10-13T13:11:25.067Z,28.9
2022-10-13T13:15:29.080Z,30.2
2022-10-13T13:19:33.137Z,33.6
2022-10-13T13:21:35.179Z,24.5
2022-10-13T13:25:42.278Z,31.2
2022-10-13T13:31:48.350Z,32.8
2022-10-13T13:33:50.376Z,43.7
2022-10-13T13:35:52.425Z,29.1
2022-10-13T13:37:54.453Z,32.9
2022-10-13T13:39:59.537Z,35.2
2022-10-13T13:42:01.576Z,35.1
2022-10-13T13:44:03.730Z,45.2
2022-10-13T13:45:06.143Z,38.2
2022-10-13T13:47:08.172Z,31.4
2022-10-13T13:49:10.212Z,37.6
2022-10-13T13:51:12.263Z,40
2022-10-13T13:53:18.852Z,33.2
2022-10-13T13:55:20.853Z,38.2
2022-10-13T13:57:23.172Z,31.7
2022-10-13T13:59:24.917Z,40.2
2022-10-13T14:01:26.955Z,32
2022-10-13T14:03:28.969Z,30.3
2022-10-13T14:05:30.998Z,42.4
2022-10-13T14:09:38.115Z,32.7
2022-10-13T14:11:40.133Z,39.7
2022-10-13T14:17:46.226Z,38.8
2022-10-13T14:19:48.260Z,38
2022-10-13T14:23:55.387Z,43.8
2022-10-13T14:25:57.418Z,44.8
2022-10-13T14:27:59.470Z,42.2
2022-10-13T14:30:01.732Z,46.2
2022-10-13T14:32:03.520Z,44.3
2022-10-13T14:34:05.559Z,45.8
2022-10-13T14:36:10.648Z,53
2022-10-13T14:38:12.663Z,43.1
2022-10-13T14:40:14.686Z,40.1
2022-10-13T14:42:31.367Z,56.1
2022-10-13T14:44:33.397Z,43.2
2022-10-13T14:46:35.410Z,50.2
2022-10-13T14:48:40.510Z,44.8
2022-10-13T14:50:42.534Z,44.4
2022-10-13T14:56:48.656Z,52.4
2022-10-13T14:58:50.669Z,41.3
2022-10-13T15:00:52.699Z,53.9
2022-10-13T15:02:57.783Z,56.5
2022-10-13T15:04:59.804Z,47.1
2022-10-13T15:07:01.852Z,38.6
2022-10-13T15:15:09.939Z,50.6
2022-10-13T15:17:15.052Z,52.8
2022-10-13T15:25:23.143Z,38.9
2022-10-13T15:33:34.312Z,30.7
2022-10-13T15:36:38.907Z,49.3
2022-10-13T15:38:40.897Z,32.4
2022-10-13T15:40:42.933Z,34.1
2022-10-13T15:42:44.954Z,49.1
2022-10-13T15:45:08.937Z,39.3
2022-10-13T15:47:07.008Z,47.5
2022-10-13T15:48:54.343Z,42.4
2022-10-13T15:50:56.138Z,45.6
2022-10-13T15:52:58.204Z,42.5
2022-10-13T15:55:00.179Z,41.2
2022-10-13T15:57:02.223Z,44.3
2022-10-13T15:59:07.289Z,46.1
2022-10-13T16:01:09.438Z,50.2
2022-10-13T16:03:11.358Z,47.5
2022-10-13T16:13:24.603Z,41.7
2022-10-13T16:17:28.624Z,52.7
2022-10-13T16:19:30.649Z,42.9
2022-10-13T16:21:32.693Z,55.3
2022-10-13T16:23:34.726Z,44.8
2022-10-13T16:25:36.747Z,47.5
2022-10-13T16:27:44.237Z,59.8
2022-10-13T16:29:44.695Z,64.5
2022-10-13T16:31:46.728Z,52.1
2022-10-13T16:32:49.268Z,48.2
2022-10-13T16:38:55.339Z,56.4
2022-10-13T16:41:00.508Z,68.8
2022-10-13T16:43:02.496Z,58.3
2022-10-13T16:45:04.520Z,58.4
2022-10-13T16:47:06.544Z,48.1
2022-10-13T16:49:08.561Z,58.5
2022-10-13T16:51:10.622Z,54.9
2022-10-13T16:53:12.640Z,51.5
2022-10-13T16:55:17.751Z,58.9
2022-10-13T16:57:20.081Z,60.5
2022-10-13T16:59:21.797Z,66.2
2022-10-13T17:01:23.830Z,62.3
2022-10-13T17:03:25.855Z,59.3
2022-10-13T17:05:27.880Z,63.2
2022-10-13T17:07:29.929Z,62.7
2022-10-13T17:09:35.030Z,64.3
2022-10-13T17:13:39.084Z,59
2022-10-13T17:15:41.113Z,72
2022-10-13T17:17:43.160Z,66.1
2022-10-13T17:19:45.160Z,51.5
2022-10-13T17:21:47.197Z,66.6
2022-10-13T17:23:52.287Z,53.7
2022-10-13T17:25:54.333Z,51.6
2022-10-13T17:27:56.368Z,50.4
2022-10-13T17:28:58.960Z,55.5
2022-10-13T17:31:00.931Z,46.1
2022-10-13T17:33:04.532Z,54.1
2022-10-13T17:37:10.103Z,52.1
2022-10-13T17:39:12.112Z,52.2
2022-10-13T17:41:14.122Z,50.7
2022-10-13T17:43:16.180Z,58.2
2022-10-13T17:45:18.191Z,55.5
2022-10-13T17:47:20.464Z,54.4
2022-10-13T17:49:22.258Z,66.3
2022-10-13T17:51:27.368Z,56.9
2022-10-13T17:53:29.371Z,60.3
2022-10-13T17:55:31.424Z,64.7
2022-10-13T17:57:33.450Z,56.4
2022-10-13T17:59:35.476Z,54.2
2022-10-13T18:01:37.588Z,53.4
2022-10-13T18:03:39.529Z,44.5
2022-10-13T18:05:44.632Z,50.6
2022-10-13T18:07:47.022Z,58.4
2022-10-13T18:09:48.673Z,56.7
2022-10-13T18:11:51.474Z,57.5
2022-10-13T18:13:52.747Z,57.3
2022-10-13T18:15:54.780Z,75.6
2022-10-13T18:17:56.798Z,57.1
2022-10-13T18:20:01.901Z,69.2
2022-10-13T18:22:03.915Z,57.9
2022-10-13T18:24:05.928Z,55.4
2022-10-13T18:26:28.882Z,60.2
2022-10-13T18:28:30.927Z,69
2022-10-13T18:30:32.911Z,69.1
2022-10-13T18:32:38.030Z,57.9
2022-10-13T18:34:40.035Z,54.9
2022-10-13T18:36:42.053Z,68.1
2022-10-13T18:42:49.642Z,81
2022-10-13T18:48:57.303Z,97.1
2022-10-13T18:50:59.336Z,73.3
2022-10-13T18:53:01.360Z,87.4
2022-10-13T18:55:03.389Z,82.3
2022-10-13T18:57:05.423Z,85
2022-10-13T19:01:12.620Z,80
2022-10-13T19:03:14.570Z,80
2022-10-13T19:05:16.595Z,74.5
2022-10-13T19:07:19.004Z,75.1
2022-10-13T19:09:20.652Z,74.4
2022-10-13T19:11:22.667Z,75
2022-10-13T19:13:24.689Z,79.8
2022-10-13T19:15:29.778Z,86.9
2022-10-13T19:19:33.829Z,101.2
2022-10-13T19:20:36.396Z,81.4
2022-10-13T19:22:38.406Z,90.1
2022-10-13T19:24:40.429Z,80.6
2022-10-13T19:26:42.454Z,78.9
2022-10-13T19:28:47.589Z,88
2022-10-13T19:30:49.585Z,91.5
2022-10-13T19:32:51.606Z,84.4
2022-10-13T19:34:53.635Z,80.1
2022-10-13T19:36:55.653Z,79.3
2022-10-13T19:38:57.699Z,70.7
2022-10-13T19:40:59.707Z,74.2
2022-10-13T19:45:06.826Z,91
2022-10-13T19:47:10.404Z,85.9
2022-10-13T19:49:12.383Z,82
2022-10-13T19:55:18.465Z,78.9
2022-10-13T19:57:23.887Z,82.7
2022-10-13T20:07:33.669Z,78
2022-10-13T20:09:35.706Z,68.6
2022-10-13T20:13:42.818Z,78.2
2022-10-13T20:15:44.830Z,80.7
2022-10-13T20:24:58.563Z,82.2
2022-10-13T20:27:00.597Z,80.4
2022-10-13T20:35:08.696Z,77.9
2022-10-13T20:37:10.724Z,80.9
2022-10-13T20:43:24.890Z,67.5
2022-10-13T20:45:21.881Z,74.7
2022-10-13T20:47:24.217Z,67.2
2022-10-13T20:49:25.951Z,64.7
2022-10-13T20:51:27.962Z,63.7
2022-10-13T20:53:33.048Z,73.1
2022-10-13T20:55:38.119Z,70.8
2022-10-13T20:57:37.106Z,69.5
2022-10-13T20:59:39.158Z,66.5
2022-10-13T21:01:41.173Z,69
2022-10-13T21:05:45.225Z,57
2022-10-13T21:07:50.276Z,65.7
2022-10-13T21:09:54.013Z,63
2022-10-13T21:11:54.318Z,52.5
2022-10-13T21:14:58.871Z,53.9
2022-10-13T21:17:00.908Z,47.9
2022-10-13T21:19:02.945Z,45.9
2022-10-13T21:21:08.034Z,48.5
2022-10-13T21:23:10.042Z,45.8
2022-10-13T21:25:12.071Z,42
2022-10-13T21:27:14.116Z,38
2022-10-13T21:29:16.121Z,37.6
2022-10-13T21:31:18.151Z,37.2
2022-10-13T21:33:20.176Z,35.8
2022-10-13T21:35:25.275Z,37.1
2022-10-13T21:37:27.295Z,45.4
2022-10-13T21:39:29.307Z,37.8
2022-10-13T21:41:31.342Z,37.4
2022-10-13T21:45:35.386Z,39.2
2022-10-13T21:47:37.435Z,34.5
2022-10-13T21:49:42.487Z,37.3
2022-10-13T21:51:44.679Z,39.4
2022-10-13T21:53:46.544Z,41.4
2022-10-13T21:55:48.576Z,33.2
2022-10-13T21:57:50.584Z,40.2
2022-10-13T22:03:59.731Z,40.8
2022-10-13T22:06:01.768Z,46.8
2022-10-13T22:08:03.806Z,47.2
2022-10-13T22:10:26.574Z,53.1
2022-10-13T22:12:28.624Z,56.1
2022-10-13T22:14:30.634Z,52.7
2022-10-13T22:16:35.733Z,56.6
2022-10-13T22:18:37.782Z,62.6
2022-10-13T22:20:39.824Z,61.4
2022-10-13T22:22:41.820Z,55
2022-10-13T22:24:43.878Z,61.6
2022-10-13T22:30:53.017Z,59.7
2022-10-13T22:32:55.033Z,68.2
2022-10-13T22:34:57.071Z,68.6
2022-10-13T22:36:59.100Z,76.1
2022-10-13T22:39:01.120Z,58.7
2022-10-13T22:41:03.148Z,70
2022-10-13T22:43:05.159Z,68
2022-10-13T22:45:10.256Z,76.4
2022-10-13T22:47:12.272Z,81.6
2022-10-13T22:53:18.339Z,81.2
2022-10-13T22:55:20.361Z,93.7
2022-10-13T22:57:22.874Z,92.2
2022-10-13T22:59:27.472Z,89
2022-10-13T23:01:29.499Z,95.8
2022-10-13T23:03:31.593Z,91.1
2022-10-13T23:04:34.039Z,115.7
2022-10-13T23:06:36.068Z,94.7
2022-10-13T23:08:38.099Z,115.8
2022-10-13T23:10:40.121Z,97.4
2022-10-13T23:12:45.203Z,103
2022-10-13T23:14:47.260Z,107.4
2022-10-13T23:16:49.260Z,119.5
2022-10-13T23:18:51.315Z,120.4
2022-10-13T23:20:56.872Z,111.4
2022-10-13T23:22:55.314Z,108
2022-10-13T23:24:57.347Z,93.6
2022-10-13T23:27:02.446Z,97.9
2022-10-13T23:29:04.450Z,99
2022-10-13T23:31:06.479Z,89.1
2022-10-13T23:33:08.505Z,86
2022-10-13T23:35:10.534Z,90.2
2022-10-13T23:37:12.556Z,93.5
2022-10-13T23:39:14.586Z,97.8
2022-10-13T23:41:19.680Z,97.2
2022-10-13T23:43:21.747Z,91.9
2022-10-13T23:45:23.742Z,81.5
2022-10-13T23:47:25.769Z,100.4
2022-10-13T23:51:29.821Z,87.9
2022-10-13T23:57:38.978Z,93.3
2022-10-13T23:59:40.980Z,65
